Time;durP1;ratioP1;P1;durP2;ratioP2;P2;SDS_P1;SDS_P2;PMS_P1;PMS_P2;Temp;Humidity;BMP_temperature;BMP_pressure;BME280_temperature;BME280_humidity;BME280_pressure;Samples;Min_cycle;Max_cycle;Signal;HPM_P1;HPM_P2
2024/01/01 00:01:49;;;;;;;52.60;23.30;;;;;;;-128.00;-1.00;-1.00;100508;1285;1058575;-32
2024/01/01 00:04:14;;;;;;;54.10;25.20;;;;;;;-128.00;-1.00;-1.00;100493;1283;1002884;-31
2024/01/01 00:06:40;;;;;;;48.50;23.80;;;;;;;-128.00;-1.00;-1.00;100439;1285;1003450;-29
2024/01/01 00:09:05;;;;;;;50.30;24.40;;;;;;;-128.00;-1.00;-1.00;100438;1283;1003802;-31
2024/01/01 00:11:31;;;;;;;47.80;22.00;;;;;;;-128.00;-1.00;-1.00;100410;1283;1003478;-32
2024/01/01 00:13:57;;;;;;;49.90;21.60;;;;;;;-128.00;-1.00;-1.00;100487;1283;1013717;-32
2024/01/01 00:16:22;;;;;;;55.00;24.10;;;;;;;-128.00;-1.00;-1.00;100431;1285;1002302;-30
2024/01/01 00:18:48;;;;;;;46.40;21.70;;;;;;;-128.00;-1.00;-1.00;100426;1283;1003044;-32
2024/01/01 00:21:13;;;;;;;47.20;21.80;;;;;;;-128.00;-1.00;-1.00;100424;1283;1003256;-33
2024/01/01 00:23:39;;;;;;;49.30;23.40;;;;;;;-128.00;-1.00;-1.00;100538;1284;1003608;-32
2024/01/01 00:26:05;;;;;;;50.80;23.60;;;;;;;-128.00;-1.00;-1.00;100544;1283;1003727;-30
2024/01/01 00:28:30;;;;;;;;;;;;;;;-128.00;-1.00;-1.00;100532;1281;1060217;-30
2024/01/01 00:30:56;;;;;;;52.20;22.60;;;;;;;-128.00;-1.00;-1.00;100400;1283;1002965;-33
2024/01/01 00:33:21;;;;;;;62.40;25.60;;;;;;;-128.00;-1.00;-1.00;100427;1281;1013277;-29
2024/01/01 00:35:48;;;;;;;54.20;23.50;;;;;;;-128.00;-1.00;-1.00;100610;1283;1004913;-30
2024/01/01 00:38:13;;;;;;;56.40;26.20;;;;;;;-128.00;-1.00;-1.00;100489;1283;1059349;-32
2024/01/01 00:40:39;;;;;;;57.60;25.80;;;;;;;-128.00;-1.00;-1.00;100557;1283;1003491;-31
2024/01/01 00:43:04;;;;;;;57.40;25.50;;;;;;;-128.00;-1.00;-1.00;100406;1284;1002680;-30
2024/01/01 00:45:30;;;;;;;54.80;24.90;;;;;;;-128.00;-1.00;-1.00;100434;1285;1003664;-33
2024/01/01 00:47:55;;;;;;;52.20;23.50;;;;;;;-128.00;-1.00;-1.00;100605;1283;1060785;-30
2024/01/01 00:50:21;;;;;;;53.50;22.90;;;;;;;-128.00;-1.00;-1.00;100561;1282;1003413;-33
2024/01/01 00:52:46;;;;;;;45.60;21.50;;;;;;;-128.00;-1.00;-1.00;100421;1283;1004106;-29
2024/01/01 00:55:12;;;;;;;50.50;24.30;;;;;;;-128.00;-1.00;-1.00;100429;1285;1003732;-29
2024/01/01 00:57:38;;;;;;;56.80;23.20;;;;;;;-128.00;-1.00;-1.00;100496;1283;1003734;-32
2024/01/01 01:00:04;;;;;;;56.30;24.60;;;;;;;-128.00;-1.00;-1.00;100490;1283;1004754;-30
2024/01/01 01:02:30;;;;;;;58.70;25.80;;;;;;;-128.00;-1.00;-1.00;100581;1283;1059380;-35
2024/01/01 01:04:56;;;;;;;57.90;25.60;;;;;;;-128.00;-1.00;-1.00;100424;1283;1002898;-30
2024/01/01 01:07:22;;;;;;;79.00;31.60;;;;;;;-128.00;-1.00;-1.00;100418;1285;1003146;-30
2024/01/01 01:09:48;;;;;;;129.90;51.40;;;;;;;-128.00;-1.00;-1.00;100466;1282;1060651;-31
2024/01/01 01:12:13;;;;;;;134.10;49.20;;;;;;;-128.00;-1.00;-1.00;100574;1283;1003423;-31
2024/01/01 01:14:39;;;;;;;133.20;50.10;;;;;;;-128.00;-1.00;-1.00;100469;1282;1004146;-31
2024/01/01 01:17:05;;;;;;;162.50;58.50;;;;;;;-128.00;-1.00;-1.00;100450;1285;1039556;-31
2024/01/01 01:19:30;;;;;;;111.10;45.10;;;;;;;-128.00;-1.00;-1.00;100441;1283;1004436;-32
2024/01/01 01:21:56;;;;;;;139.00;47.00;;;;;;;-128.00;-1.00;-1.00;100489;1283;1004711;-31
2024/01/01 01:24:21;;;;;;;106.70;43.80;;;;;;;-128.00;-1.00;-1.00;100362;1282;1002714;-32
2024/01/01 01:26:47;;;;;;;85.50;34.70;;;;;;;-128.00;-1.00;-1.00;100419;1285;1003086;-31
2024/01/01 01:29:12;;;;;;;76.30;32.60;;;;;;;-128.00;-1.00;-1.00;100537;1283;1004180;-32
2024/01/01 01:31:40;;;;;;;65.70;28.30;;;;;;;-128.00;-1.00;-1.00;100542;1285;1005134;-32
2024/01/01 01:34:06;;;;;;;53.70;24.50;;;;;;;-128.00;-1.00;-1.00;100423;1283;1002782;-31
2024/01/01 01:36:31;;;;;;;63.20;26.00;;;;;;;-128.00;-1.00;-1.00;100464;1283;1004065;-32
2024/01/01 01:38:58;;;;;;;63.90;26.40;;;;;;;-128.00;-1.00;-1.00;100439;1281;1002865;-31
2024/01/01 01:41:23;;;;;;;54.30;25.20;;;;;;;-128.00;-1.00;-1.00;100440;1283;1004031;-32
2024/01/01 01:43:49;;;;;;;52.40;22.40;;;;;;;-128.00;-1.00;-1.00;100668;1282;1002630;-31
2024/01/01 01:46:16;;;;;;;55.10;21.40;;;;;;;-128.00;-1.00;-1.00;100495;1282;1059102;-31
2024/01/01 01:48:41;;;;;;;47.90;21.30;;;;;;;-128.00;-1.00;-1.00;100564;1283;1003514;-31
2024/01/01 01:51:07;;;;;;;59.60;22.70;;;;;;;-128.00;-1.00;-1.00;100398;1282;1002908;-31
2024/01/01 01:53:32;;;;;;;48.90;21.60;;;;;;;-128.00;-1.00;-1.00;100460;1283;1003879;-30
2024/01/01 02:35:16;;;;;;;56.70;25.10;;;;;;;2.87;100.00;98516.63;103487;1286;613185;-31
2024/01/01 02:37:42;;;;;;;49.10;22.60;;;;;;;3.10;100.00;98521.77;103595;1299;81735;-30
2024/01/01 02:40:08;;;;;;;57.10;23.30;;;;;;;-49.31;59.60;59109.92;102316;1284;1002731;-30
2024/01/01 02:42:34;;;;;;;50.90;21.80;;;;;;;-128.00;-1.00;-1.00;100229;1286;1005147;-31
2024/01/01 02:45:00;;;;;;;49.30;21.90;;;;;;;-128.00;-1.00;-1.00;100225;1283;1003797;-32
2024/01/01 02:47:25;;;;;;;48.20;19.50;;;;;;;-128.00;-1.00;-1.00;100209;1283;1003557;-35
2024/01/01 02:49:51;;;;;;;49.10;21.40;;;;;;;-128.00;-1.00;-1.00;100237;1283;1003026;-31
2024/01/01 02:52:16;;;;;;;51.30;21.60;;;;;;;-128.00;-1.00;-1.00;100193;1284;1004885;-32
2024/01/01 02:54:42;;;;;;;43.10;19.20;;;;;;;-128.00;-1.00;-1.00;100204;1283;1004887;-33
2024/01/01 02:57:08;;;;;;;47.70;19.50;;;;;;;-128.00;-1.00;-1.00;100189;1283;1005097;-31
2024/01/01 02:59:33;;;;;;;44.50;18.90;;;;;;;-128.00;-1.00;-1.00;100104;1283;1003318;-30
2024/01/01 03:01:59;;;;;;;50.20;19.50;;;;;;;-128.00;-1.00;-1.00;100191;1284;1002852;-33
2024/01/01 03:04:28;;;;;;;48.40;21.60;;;;;;;-128.00;-1.00;-1.00;100137;1283;1046524;-29
2024/01/01 03:06:54;;;;;;;46.80;20.90;;;;;;;-128.00;-1.00;-1.00;100178;1285;1059575;-31
2024/01/01 03:09:19;;;;;;;43.20;20.10;;;;;;;-128.00;-1.00;-1.00;100222;1285;1003082;-34
2024/01/01 03:11:46;;;;;;;46.60;20.50;;;;;;;-128.00;-1.00;-1.00;100121;1285;1002955;-32
2024/01/01 03:14:11;;;;;;;51.20;21.60;;;;;;;-128.00;-1.00;-1.00;100216;1287;1038124;-33
2024/01/01 03:16:37;;;;;;;62.10;27.40;;;;;;;-128.00;-1.00;-1.00;100152;1285;1003191;-33
2024/01/01 03:19:03;;;;;;;68.70;30.20;;;;;;;-128.00;-1.00;-1.00;100171;1283;1004796;-31
2024/01/01 03:21:28;;;;;;;68.70;31.00;;;;;;;-128.00;-1.00;-1.00;99825;1285;1057951;-34
2024/01/01 03:23:54;;;;;;;61.10;28.00;;;;;;;-128.00;-1.00;-1.00;100187;1287;1003179;-31
2024/01/01 03:26:20;;;;;;;54.80;24.00;;;;;;;-128.00;-1.00;-1.00;100230;1286;1003536;-31
2024/01/01 03:28:45;;;;;;;51.20;24.00;;;;;;;-128.00;-1.00;-1.00;100160;1283;1058799;-32
2024/01/01 03:31:11;;;;;;;51.20;23.00;;;;;;;-128.00;-1.00;-1.00;100245;1283;1004456;-33
2024/01/01 03:33:37;;;;;;;47.20;21.30;;;;;;;-128.00;-1.00;-1.00;100124;1285;1013505;-30
2024/01/01 03:36:03;;;;;;;76.60;38.20;;;;;;;-128.00;-1.00;-1.00;100175;1285;1004243;-30
2024/01/01 03:38:28;;;;;;;;;;;;;;;-128.00;-1.00;-1.00;100239;1285;1003174;-30
2024/01/01 03:40:54;;;;;;;64.20;26.40;;;;;;;-128.00;-1.00;-1.00;100233;1284;1056017;-32
2024/01/01 03:43:20;;;;;;;53.80;24.40;;;;;;;-128.00;-1.00;-1.00;100138;1284;1003310;-31
2024/01/01 03:45:46;;;;;;;142.80;65.30;;;;;;;-128.00;-1.00;-1.00;100226;1283;1039941;-31
2024/01/01 03:48:12;;;;;;;60.50;27.00;;;;;;;-128.00;-1.00;-1.00;100175;1286;1004626;-31
2024/01/01 03:50:38;;;;;;;57.20;23.30;;;;;;;-128.00;-1.00;-1.00;99821;1285;1004801;-32
2024/01/01 03:53:04;;;;;;;53.50;21.60;;;;;;;-128.00;-1.00;-1.00;100242;1288;1058054;-34
2024/01/01 03:55:30;;;;;;;44.10;22.10;;;;;;;-128.00;-1.00;-1.00;100207;1288;1002452;-29
2024/01/01 03:57:56;;;;;;;48.40;21.30;;;;;;;-128.00;-1.00;-1.00;100164;1284;1003034;-31
2024/01/01 04:00:22;;;;;;;46.70;21.50;;;;;;;-128.00;-1.00;-1.00;100301;1286;1003280;-30
2024/01/01 04:02:49;;;;;;;43.40;17.80;;;;;;;-128.00;-1.00;-1.00;100151;1285;1055239;-31
2024/01/01 04:05:15;;;;;;;41.20;18.50;;;;;;;-128.00;-1.00;-1.00;100126;1288;1004907;-31
2024/01/01 04:07:40;;;;;;;48.20;19.40;;;;;;;-128.00;-1.00;-1.00;100227;1283;1003225;-30
2024/01/01 04:10:08;;;;;;;40.30;16.60;;;;;;;-128.00;-1.00;-1.00;100198;1286;1004683;-32
2024/01/01 04:12:34;;;;;;;40.00;18.50;;;;;;;-128.00;-1.00;-1.00;100227;1285;1058385;-32
2024/01/01 04:14:59;;;;;;;44.10;18.10;;;;;;;-128.00;-1.00;-1.00;100168;1285;1004033;-35
2024/01/01 04:17:25;;;;;;;48.60;20.00;;;;;;;-128.00;-1.00;-1.00;100270;1284;1003446;-32
2024/01/01 04:19:50;;;;;;;45.10;19.40;;;;;;;-128.00;-1.00;-1.00;100133;1285;1038309;-32
2024/01/01 04:22:18;;;;;;;45.40;19.20;;;;;;;-128.00;-1.00;-1.00;100192;1285;1002798;-31
2024/01/01 04:24:43;;;;;;;48.30;20.10;;;;;;;-128.00;-1.00;-1.00;100201;1285;1003246;-33
2024/01/01 04:27:09;;;;;;;44.70;17.10;;;;;;;-128.00;-1.00;-1.00;100145;1286;1003455;-34
2024/01/01 04:29:35;;;;;;;37.00;16.90;;;;;;;-128.00;-1.00;-1.00;100164;1285;1003303;-32
2024/01/01 04:32:00;;;;;;;39.30;17.30;;;;;;;-128.00;-1.00;-1.00;100012;1286;1039605;-30
2024/01/01 04:34:26;;;;;;;36.90;16.80;;;;;;;-128.00;-1.00;-1.00;100133;1283;1004980;-30
2024/01/01 04:36:52;;;;;;;43.10;17.90;;;;;;;-128.00;-1.00;-1.00;100238;1284;1002251;-34
2024/01/01 04:39:17;;;;;;;46.10;19.60;;;;;;;-128.00;-1.00;-1.00;100028;1285;1003520;-34
2024/01/01 04:41:43;;;;;;;38.80;16.30;;;;;;;-128.00;-1.00;-1.00;100031;1285;1002889;-34
2024/01/01 04:44:08;;;;;;;40.90;18.10;;;;;;;-128.00;-1.00;-1.00;100223;1284;1002428;-34
2024/01/01 04:46:34;;;;;;;40.60;16.00;;;;;;;-128.00;-1.00;-1.00;100225;1285;1003685;-40
2024/01/01 04:48:59;;;;;;;37.60;17.50;;;;;;;-128.00;-1.00;-1.00;100124;1286;1059586;-33
2024/01/01 04:51:25;;;;;;;43.80;18.50;;;;;;;-128.00;-1.00;-1.00;100164;1285;1002876;-33
2024/01/01 04:53:51;;;;;;;41.30;17.60;;;;;;;-128.00;-1.00;-1.00;100263;1285;1004177;-33
2024/01/01 04:56:17;;;;;;;;;;;;;;;-128.00;-1.00;-1.00;100219;1285;1004738;-32
2024/01/01 04:58:43;;;;;;;37.00;16.80;;;;;;;-128.00;-1.00;-1.00;100164;1287;1004372;-33
2024/01/01 05:01:09;;;;;;;39.50;16.70;;;;;;;-128.00;-1.00;-1.00;100107;1284;1003878;-34
2024/01/01 05:03:34;;;;;;;37.10;16.70;;;;;;;-128.00;-1.00;-1.00;100239;1286;1002781;-33
2024/01/01 05:06:00;;;;;;;42.00;17.30;;;;;;;-128.00;-1.00;-1.00;100264;1285;1046072;-32
2024/01/01 05:08:26;;;;;;;39.50;16.10;;;;;;;-128.00;-1.00;-1.00;100203;1285;1004997;-33
2024/01/01 05:10:51;;;;;;;38.00;16.00;;;;;;;-128.00;-1.00;-1.00;100182;1285;1002602;-34
2024/01/01 05:13:17;;;;;;;45.50;18.70;;;;;;;-128.00;-1.00;-1.00;100150;1284;1003085;-32
2024/01/01 05:15:43;;;;;;;36.80;16.70;;;;;;;-128.00;-1.00;-1.00;100186;1285;1003483;-35
2024/01/01 05:18:09;;;;;;;37.30;16.10;;;;;;;-128.00;-1.00;-1.00;100227;1285;1004920;-32
2024/01/01 05:20:35;;;;;;;37.40;17.00;;;;;;;-128.00;-1.00;-1.00;100302;1286;1003817;-31
2024/01/01 05:23:00;;;;;;;40.60;19.00;;;;;;;-128.00;-1.00;-1.00;100165;1285;1058490;-32
2024/01/01 05:25:26;;;;;;;45.40;20.60;;;;;;;-128.00;-1.00;-1.00;100155;1288;1003420;-34
2024/01/01 05:27:52;;;;;;;44.70;20.00;;;;;;;-128.00;-1.00;-1.00;100187;1286;1003258;-34
2024/01/01 05:30:17;;;;;;;43.70;20.40;;;;;;;-128.00;-1.00;-1.00;100141;1285;1059744;-34
2024/01/01 05:32:43;;;;;;;;;;;;;;;-128.00;-1.00;-1.00;100233;1284;1004806;-34
2024/01/01 05:35:09;;;;;;;42.50;17.10;;;;;;;-128.00;-1.00;-1.00;100259;1285;1003126;-32
2024/01/01 05:37:34;;;;;;;43.40;18.40;;;;;;;-128.00;-1.00;-1.00;100250;1283;1002872;-32
2024/01/01 05:40:01;;;;;;;48.80;19.40;;;;;;;-128.00;-1.00;-1.00;100175;1285;1003542;-33
2024/01/01 05:42:28;;;;;;;38.30;17.50;;;;;;;-128.00;-1.00;-1.00;100203;1284;1003129;-33
2024/01/01 05:44:53;;;;;;;44.50;19.50;;;;;;;-128.00;-1.00;-1.00;100257;1285;1003283;-34
2024/01/01 05:47:19;;;;;;;45.80;18.30;;;;;;;-128.00;-1.00;-1.00;100163;1285;1003361;-34
2024/01/01 05:49:46;;;;;;;42.20;18.70;;;;;;;-128.00;-1.00;-1.00;100150;1288;1002944;-34
2024/01/01 05:52:12;;;;;;;45.60;17.80;;;;;;;-128.00;-1.00;-1.00;100238;1285;1003736;-32
2024/01/01 05:54:38;;;;;;;41.50;17.20;;;;;;;-128.00;-1.00;-1.00;100170;1285;1059515;-32
2024/01/01 05:57:03;;;;;;;40.70;17.40;;;;;;;-128.00;-1.00;-1.00;100192;1285;1003254;-34
2024/01/01 05:59:29;;;;;;;42.90;18.30;;;;;;;-128.00;-1.00;-1.00;100231;1285;1004470;-32
2024/01/01 06:01:55;;;;;;;42.90;17.80;;;;;;;-128.00;-1.00;-1.00;100200;1285;1039636;-35
2024/01/01 06:04:20;;;;;;;38.20;17.40;;;;;;;-128.00;-1.00;-1.00;100221;1285;1003394;-34
2024/01/01 06:06:46;;;;;;;36.40;15.80;;;;;;;-128.00;-1.00;-1.00;100202;1285;1004556;-32
2024/01/01 06:09:11;;;;;;;38.20;17.20;;;;;;;-128.00;-1.00;-1.00;100185;1285;1003955;-32
2024/01/01 06:11:38;;;;;;;36.00;15.90;;;;;;;-128.00;-1.00;-1.00;100218;1284;1038325;-32
2024/01/01 06:14:03;;;;;;;38.20;16.40;;;;;;;-128.00;-1.00;-1.00;100177;1285;1003103;-33
2024/01/01 06:16:29;;;;;;;31.30;14.60;;;;;;;-128.00;-1.00;-1.00;100220;1285;1003206;-34
2024/01/01 06:18:54;;;;;;;39.80;16.60;;;;;;;-128.00;-1.00;-1.00;100199;1288;1059586;-33
2024/01/01 06:21:20;;;;;;;36.60;18.10;;;;;;;-128.00;-1.00;-1.00;100191;1285;1003015;-36
2024/01/01 06:23:46;;;;;;;33.30;13.90;;;;;;;-128.00;-1.00;-1.00;100180;1288;1048770;-33
2024/01/01 06:26:13;;;;;;;36.20;14.70;;;;;;;-128.00;-1.00;-1.00;100226;1285;1003420;-34
2024/01/01 06:28:39;;;;;;;36.60;14.60;;;;;;;-128.00;-1.00;-1.00;100178;1285;1003002;-35
2024/01/01 06:31:04;;;;;;;31.20;14.60;;;;;;;-128.00;-1.00;-1.00;100125;1285;1005358;-39
2024/01/01 06:33:31;;;;;;;38.30;16.00;;;;;;;-128.00;-1.00;-1.00;100155;1285;1004718;-33
2024/01/01 06:35:56;;;;;;;34.00;16.10;;;;;;;-128.00;-1.00;-1.00;100239;1285;1045890;-33
2024/01/01 06:38:22;;;;;;;35.90;15.40;;;;;;;-128.00;-1.00;-1.00;100226;1285;1003632;-34
2024/01/01 06:40:48;;;;;;;32.60;15.00;;;;;;;-128.00;-1.00;-1.00;100124;1285;1003688;-34
2024/01/01 06:43:14;;;;;;;32.60;15.10;;;;;;;-128.00;-1.00;-1.00;100151;1286;1003852;-33
2024/01/01 06:45:39;;;;;;;;;;;;;;;-128.00;-1.00;-1.00;100169;1285;1003875;-34
2024/01/01 06:48:05;;;;;;;27.80;13.30;;;;;;;-128.00;-1.00;-1.00;100269;1285;1003342;-33
2024/01/01 06:50:31;;;;;;;32.50;12.80;;;;;;;-128.00;-1.00;-1.00;100238;1285;1055999;-33
2024/01/01 06:52:56;;;;;;;31.70;13.20;;;;;;;-128.00;-1.00;-1.00;100137;1285;1003100;-33
2024/01/01 06:55:22;;;;;;;32.50;13.30;;;;;;;-128.00;-1.00;-1.00;100211;1288;1003732;-32
2024/01/01 06:57:48;;;;;;;30.90;12.90;;;;;;;-128.00;-1.00;-1.00;100169;1285;1046601;-32
2024/01/01 07:00:15;;;;;;;30.50;12.50;;;;;;;-128.00;-1.00;-1.00;100152;1285;1002970;-33
2024/01/01 07:02:41;;;;;;;25.50;11.90;;;;;;;-128.00;-1.00;-1.00;100213;1284;1003217;-31
2024/01/01 07:05:07;;;;;;;;;;;;;;;-128.00;-1.00;-1.00;100168;1286;1003278;-32
2024/01/01 07:07:33;;;;;;;29.20;12.80;;;;;;;-128.00;-1.00;-1.00;100184;1288;1002938;-32
2024/01/01 07:10:00;;;;;;;25.60;12.20;;;;;;;-128.00;-1.00;-1.00;100229;1288;1005138;-32
2024/01/01 07:12:28;;;;;;;;;;;;;;;-128.00;-1.00;-1.00;100182;1283;1003653;-33
2024/01/01 07:14:54;;;;;;;26.80;12.00;;;;;;;-128.00;-1.00;-1.00;100197;1285;1003160;-34
2024/01/01 07:17:20;;;;;;;28.00;11.50;;;;;;;-128.00;-1.00;-1.00;100159;1285;1003644;-32
2024/01/01 07:19:46;;;;;;;21.90;10.80;;;;;;;-128.00;-1.00;-1.00;100118;1286;1003150;-33
2024/01/01 07:22:12;;;;;;;22.40;9.90;;;;;;;-128.00;-1.00;-1.00;100183;1286;1003305;-34
2024/01/01 07:24:39;;;;;;;;;;;;;;;-128.00;-1.00;-1.00;100183;1286;1045748;-33
2024/01/01 07:27:05;;;;;;;18.90;8.90;;;;;;;-128.00;-1.00;-1.00;100237;1285;1003957;-34
2024/01/01 07:29:30;;;;;;;18.30;8.70;;;;;;;-128.00;-1.00;-1.00;100150;1285;1003293;-34
2024/01/01 07:31:56;;;;;;;21.00;10.50;;;;;;;-128.00;-1.00;-1.00;100210;1286;1003576;-34
2024/01/01 07:34:22;;;;;;;24.20;12.20;;;;;;;-128.00;-1.00;-1.00;100185;1288;1038960;-34
2024/01/01 07:36:51;;;;;;;39.80;20.20;;;;;;;-128.00;-1.00;-1.00;100222;1285;1003434;-34
2024/01/01 07:39:19;;;;;;;91.20;38.10;;;;;;;-128.00;-1.00;-1.00;100211;1284;1060023;-33
2024/01/01 07:41:48;;;;;;;83.70;35.20;;;;;;;-128.00;-1.00;-1.00;100264;1285;1002712;-33
2024/01/01 07:44:14;;;;;;;37.20;16.10;;;;;;;-128.00;-1.00;-1.00;100193;1285;1057695;-32
2024/01/01 07:46:41;;;;;;;47.20;20.70;;;;;;;-128.00;-1.00;-1.00;100119;1288;1003230;-34
2024/01/01 07:49:06;;;;;;;40.50;14.60;;;;;;;-128.00;-1.00;-1.00;100159;1288;1003029;-33
2024/01/01 07:51:33;;;;;;;31.70;11.20;;;;;;;-128.00;-1.00;-1.00;100184;1288;1003468;-32
2024/01/01 07:53:59;;;;;;;19.40;7.90;;;;;;;-128.00;-1.00;-1.00;100137;1285;1003075;-32
2024/01/01 07:56:25;;;;;;;18.20;8.20;;;;;;;-128.00;-1.00;-1.00;100157;1288;1002495;-33
2024/01/01 07:58:52;;;;;;;17.70;8.50;;;;;;;-128.00;-1.00;-1.00;100131;1285;1003775;-34
2024/01/01 08:01:18;;;;;;;26.40;9.60;;;;;;;-128.00;-1.00;-1.00;100203;1285;1039465;-32
2024/01/01 08:03:43;;;;;;;19.00;9.50;;;;;;;-128.00;-1.00;-1.00;100294;1285;1004683;-34
2024/01/01 08:06:09;;;;;;;22.20;9.50;;;;;;;-128.00;-1.00;-1.00;100172;1286;1003474;-34
2024/01/01 08:08:35;;;;;;;23.40;10.20;;;;;;;-128.00;-1.00;-1.00;100130;1285;1057824;-34
2024/01/01 08:11:01;;;;;;;18.00;7.90;;;;;;;-128.00;-1.00;-1.00;100112;1285;1003297;-33
2024/01/01 08:13:26;;;;;;;23.70;10.40;;;;;;;-128.00;-1.00;-1.00;100150;1288;1002804;-34
2024/01/01 08:15:53;;;;;;;22.60;9.20;;;;;;;-128.00;-1.00;-1.00;100153;1283;1060785;-34
2024/01/01 08:18:19;;;;;;;17.70;9.00;;;;;;;-128.00;-1.00;-1.00;100191;1285;1003313;-34
2024/01/01 08:20:44;;;;;;;17.20;8.10;;;;;;;-128.00;-1.00;-1.00;100201;1286;1003180;-33
2024/01/01 08:23:10;;;;;;;;;;;;;;;-128.00;-1.00;-1.00;100171;1286;1038818;-33
2024/01/01 08:25:36;;;;;;;13.50;7.10;;;;;;;-128.00;-1.00;-1.00;100086;1285;1002677;-34
2024/01/01 08:28:01;;;;;;;18.00;8.20;;;;;;;-128.00;-1.00;-1.00;100229;1286;1003209;-33
2024/01/01 08:30:27;;;;;;;18.80;8.20;;;;;;;-128.00;-1.00;-1.00;100135;1286;1058664;-33
2024/01/01 08:32:53;;;;;;;19.30;7.70;;;;;;;-128.00;-1.00;-1.00;100243;1287;1003138;-33
2024/01/01 08:35:18;;;;;;;16.50;7.30;;;;;;;-128.00;-1.00;-1.00;100163;1284;1045924;-34
2024/01/01 08:37:44;;;;;;;16.60;7.40;;;;;;;-128.00;-1.00;-1.00;100187;1288;1004337;-34
2024/01/01 08:40:10;;;;;;;16.80;7.30;;;;;;;-128.00;-1.00;-1.00;100190;1285;1059636;-32
2024/01/01 08:42:36;;;;;;;17.30;8.10;;;;;;;-128.00;-1.00;-1.00;100149;1285;1003697;-33
2024/01/01 08:45:03;;;;;;;15.20;6.80;;;;;;;-128.00;-1.00;-1.00;100152;1285;1003315;-33
2024/01/01 08:47:29;;;;;;;13.90;6.60;;;;;;;-128.00;-1.00;-1.00;100153;1285;1003691;-34
2024/01/01 08:49:55;;;;;;;12.30;6.10;;;;;;;-128.00;-1.00;-1.00;100140;1288;1002988;-34
2024/01/01 08:52:21;;;;;;;15.30;6.50;;;;;;;-128.00;-1.00;-1.00;100240;1288;1004028;-38
2024/01/01 08:54:47;;;;;;;13.60;5.90;;;;;;;-128.00;-1.00;-1.00;100191;1285;1003319;-35
2024/01/01 08:57:13;;;;;;;21.00;6.60;;;;;;;-128.00;-1.00;-1.00;100025;1288;1039476;-33
2024/01/01 08:59:39;;;;;;;16.80;6.60;;;;;;;-128.00;-1.00;-1.00;100218;1285;1004222;-34
2024/01/01 09:02:06;;;;;;;13.20;6.50;;;;;;;-128.00;-1.00;-1.00;100265;1285;1004072;-35
2024/01/01 09:04:32;;;;;;;15.20;7.30;;;;;;;-128.00;-1.00;-1.00;100242;1286;1002896;-35
2024/01/01 09:07:00;;;;;;;17.00;7.90;;;;;;;-128.00;-1.00;-1.00;100089;1285;1002967;-35
2024/01/01 09:09:27;;;;;;;20.50;7.80;;;;;;;-128.00;-1.00;-1.00;100130;1286;1004244;-35
2024/01/01 09:11:53;;;;;;;21.40;6.40;;;;;;;-128.00;-1.00;-1.00;100103;1285;1004866;-34
2024/01/01 09:14:18;;;;;;;16.10;7.30;;;;;;;-128.00;-1.00;-1.00;100138;1286;1005042;-34
2024/01/01 09:16:44;;;;;;;17.60;8.70;;;;;;;-128.00;-1.00;-1.00;100226;1286;1003211;-34
2024/01/01 09:19:10;;;;;;;18.10;7.80;;;;;;;-128.00;-1.00;-1.00;100167;1288;1059120;-35
2024/01/01 09:21:35;;;;;;;21.80;9.10;;;;;;;-128.00;-1.00;-1.00;100201;1286;1004770;-34
2024/01/01 09:24:01;;;;;;;17.40;7.20;;;;;;;-128.00;-1.00;-1.00;100160;1288;1003255;-34
2024/01/01 09:26:29;;;;;;;16.70;7.90;;;;;;;-128.00;-1.00;-1.00;100080;1286;1060178;-33
2024/01/01 09:28:55;;;;;;;15.00;7.40;;;;;;;-128.00;-1.00;-1.00;100200;1285;1002822;-34
2024/01/01 09:31:20;;;;;;;19.90;7.80;;;;;;;-128.00;-1.00;-1.00;100100;1285;1004324;-34
2024/01/01 09:33:46;;;;;;;16.00;6.90;;;;;;;-128.00;-1.00;-1.00;100157;1286;1003707;-34
2024/01/01 09:36:13;;;;;;;14.90;7.50;;;;;;;-128.00;-1.00;-1.00;100198;1285;1004443;-33
2024/01/01 09:38:39;;;;;;;16.70;7.20;;;;;;;-128.00;-1.00;-1.00;100142;1286;1003702;-34
2024/01/01 09:41:04;;;;;;;;;;;;;;;-128.00;-1.00;-1.00;100221;1286;1002943;-35
2024/01/01 09:43:30;;;;;;;11.10;5.90;;;;;;;-128.00;-1.00;-1.00;100160;1288;1004214;-33
2024/01/01 09:45:57;;;;;;;11.60;5.90;;;;;;;-128.00;-1.00;-1.00;100133;1288;1004142;-35
2024/01/01 09:48:23;;;;;;;23.00;7.70;;;;;;;-128.00;-1.00;-1.00;100188;1287;1002734;-33
2024/01/01 09:50:51;;;;;;;17.60;7.90;;;;;;;-128.00;-1.00;-1.00;100169;1286;1003769;-32
2024/01/01 09:53:17;;;;;;;13.00;6.30;;;;;;;-128.00;-1.00;-1.00;100221;1288;1003364;-32
2024/01/01 09:55:51;;;;;;;17.90;8.30;;;;;;;-128.00;-1.00;-1.00;100155;1285;1005249;-33
2024/01/01 09:58:17;;;;;;;15.30;7.30;;;;;;;-128.00;-1.00;-1.00;100187;1286;1012725;-33
2024/01/01 10:00:42;;;;;;;17.60;7.50;;;;;;;-128.00;-1.00;-1.00;100226;1286;1003759;-35
2024/01/01 10:03:10;;;;;;;18.30;7.40;;;;;;;-128.00;-1.00;-1.00;100147;1287;1004162;-35
2024/01/01 10:05:40;;;;;;;17.80;7.20;;;;;;;-128.00;-1.00;-1.00;100184;1288;1056387;-33
2024/01/01 10:08:13;;;;;;;15.30;7.00;;;;;;;-128.00;-1.00;-1.00;100170;1285;1059300;-34
2024/01/01 10:10:39;;;;;;;14.50;7.20;;;;;;;-128.00;-1.00;-1.00;100184;1286;1013477;-33
2024/01/01 10:13:09;;;;;;;17.30;7.10;;;;;;;-128.00;-1.00;-1.00;100205;1288;1004712;-34
2024/01/01 10:15:37;;;;;;;18.10;8.00;;;;;;;-128.00;-1.00;-1.00;100168;1284;1046841;-32
2024/01/01 10:18:09;;;;;;;18.10;7.70;;;;;;;-128.00;-1.00;-1.00;100213;1286;1004585;-33
2024/01/01 10:20:35;;;;;;;18.00;8.00;;;;;;;-128.00;-1.00;-1.00;100250;1285;1055078;-34
2024/01/01 10:23:01;;;;;;;18.70;7.90;;;;;;;-128.00;-1.00;-1.00;100131;1287;1002865;-33
2024/01/01 10:25:27;;;;;;;18.20;7.80;;;;;;;-128.00;-1.00;-1.00;100122;1287;1003251;-34
2024/01/01 10:27:55;;;;;;;17.80;7.80;;;;;;;-128.00;-1.00;-1.00;100173;1287;1003572;-30
2024/01/01 10:30:21;;;;;;;14.70;7.80;;;;;;;-128.00;-1.00;-1.00;100199;1285;1059090;-33
2024/01/01 10:32:47;;;;;;;18.00;7.70;;;;;;;-128.00;-1.00;-1.00;100116;1286;1002851;-33
2024/01/01 10:35:12;;;;;;;14.40;7.20;;;;;;;-128.00;-1.00;-1.00;100143;1287;1003481;-35
2024/01/01 10:37:38;;;;;;;17.20;7.40;;;;;;;-128.00;-1.00;-1.00;100200;1288;1003494;-35
2024/01/01 10:40:05;;;;;;;16.40;7.50;;;;;;;-128.00;-1.00;-1.00;100158;1286;1003653;-32
2024/01/01 10:42:34;;;;;;;19.80;8.30;;;;;;;-128.00;-1.00;-1.00;100118;1288;1002749;-32
2024/01/01 10:45:03;;;;;;;24.80;9.70;;;;;;;-128.00;-1.00;-1.00;100198;1286;1055819;-36
2024/01/01 10:47:29;;;;;;;21.30;8.30;;;;;;;-128.00;-1.00;-1.00;100150;1288;1057727;-35
2024/01/01 10:50:09;;;;;;;20.10;7.70;;;;;;;-128.00;-1.00;-1.00;100173;1283;1002978;-31
2024/01/01 10:52:53;;;;;;;22.50;8.20;;;;;;;-128.00;-1.00;-1.00;100159;1286;1041303;-32
2024/01/01 10:55:34;;;;;;;22.40;9.30;;;;;;;-128.00;-1.00;-1.00;100137;1285;1045520;-33
2024/01/01 10:58:17;;;;;;;20.10;10.40;;;;;;;-128.00;-1.00;-1.00;100165;1286;1060774;-34
2024/01/01 11:01:02;;;;;;;22.90;9.90;;;;;;;-128.00;-1.00;-1.00;99937;1289;1056619;-33
2024/01/01 11:03:31;;;;;;;18.90;8.80;;;;;;;-128.00;-1.00;-1.00;100149;1288;1057963;-32
2024/01/01 11:05:57;;;;;;;18.60;8.60;;;;;;;-128.00;-1.00;-1.00;100158;1285;1012579;-32
2024/01/01 11:08:27;;;;;;;20.30;8.90;;;;;;;-128.00;-1.00;-1.00;100215;1286;1004037;-34
2024/01/01 11:10:53;;;;;;;21.00;7.70;;;;;;;-128.00;-1.00;-1.00;100236;1285;1046373;-34
2024/01/01 11:13:50;;;;;;;22.00;8.60;;;;;;;-128.00;-1.00;-1.00;100179;1286;1003784;-32
2024/01/01 11:16:16;;;;;;;19.70;9.60;;;;;;;-128.00;-1.00;-1.00;100133;1283;1056339;-34
2024/01/01 11:18:44;;;;;;;22.60;8.40;;;;;;;-128.00;-1.00;-1.00;100122;1286;1005015;-34
2024/01/01 11:21:09;;;;;;;19.60;7.50;;;;;;;-128.00;-1.00;-1.00;100178;1288;1039069;-32
2024/01/01 11:23:43;;;;;;;24.40;11.60;;;;;;;-128.00;-1.00;-1.00;100242;1286;1002624;-32
2024/01/01 11:26:25;;;;;;;27.60;10.70;;;;;;;-128.00;-1.00;-1.00;100195;1284;1060679;-33
2024/01/01 11:28:51;;;;;;;27.40;12.10;;;;;;;-128.00;-1.00;-1.00;100130;1286;1055226;-34
2024/01/01 11:31:17;;;;;;;25.90;11.40;;;;;;;-128.00;-1.00;-1.00;100189;1285;1005063;-33
2024/01/01 11:33:43;;;;;;;22.10;11.80;;;;;;;-128.00;-1.00;-1.00;100145;1288;1004482;-31
2024/01/01 11:36:11;;;;;;;20.30;9.10;;;;;;;-128.00;-1.00;-1.00;100167;1289;1046705;-32
2024/01/01 11:38:37;;;;;;;19.50;9.50;;;;;;;-128.00;-1.00;-1.00;100213;1283;1060351;-33
2024/01/01 11:41:04;;;;;;;24.30;11.10;;;;;;;-128.00;-1.00;-1.00;100206;1288;1004137;-31
2024/01/01 11:43:30;;;;;;;22.30;9.60;;;;;;;-128.00;-1.00;-1.00;100119;1288;1004498;-32